This is the latest recevied weather packets stored in our database for station/object KB5SMY. If no packets are shown the sender has not sent any weather packets the latest 10 day(s).
| Time | Temp. | Humidity | Pressure | Rain* | Wind** | Luminosity | Snow |
|---|---|---|---|---|---|---|---|
| 1777698131 | 11.67° C | 83% | 1019.6 hPa | 0 mm | - | 0 W/m² | - |
| 1777695004 | 12.78° C | 81% | 1019.3 hPa | 0 mm | - | 0 W/m² | - |
| 1777693332 | 13.33° C | 80% | 1019.2 hPa | 0 mm | - | 0 W/m² | - |
| 1777688404 | 15° C | 71% | 1018.6 hPa | 0 mm | - | 0 W/m² | - |
| 1777686605 | 15.56° C | 73% | 1018 hPa | 0 mm | - | 0 W/m² | - |
| 1777685405 | 16.11° C | 72% | 1017.8 hPa | 0 mm | - | 0 W/m² | - |
| 1777683004 | 16.67° C | 68% | 1016.6 hPa | 0 mm | - | 37 W/m² | - |
| 1777680604 | 16.67° C | 69% | 1016.1 hPa | 0 mm | - | 58 W/m² | - |
| 1777678204 | 16.67° C | 68% | 1015.4 hPa | 0 mm | - | 93 W/m² | - |
| 1777669804 | 16.11° C | 67% | 1015.6 hPa | 0 mm | - | 294 W/m² | - |
| 1777667531 | 16.67° C | 59% | 1016.1 hPa | 0 mm | - | 199 W/m² | - |
| 1777666204 | 16.67° C | 56% | 1016.4 hPa | 0 mm | - | 295 W/m² | - |
| 1777662004 | 16.67° C | 60% | 1015.7 hPa | 0 mm | - | 255 W/m² | - |
| 1777661404 | 16.11° C | 58% | 1015.4 hPa | 0 mm | - | 220 W/m² | - |
| 1777659004 | 16.67° C | 57% | 1016.2 hPa | 0 mm | - | 225 W/m² | - |
| 1777658404 | 16.67° C | 58% | 1016.2 hPa | 0 mm | - | 236 W/m² | - |
| 1777654804 | 16.11° C | 71% | 1016.3 hPa | 0 mm | - | 262 W/m² | - |
| 1777653731 | 16.11° C | 76% | 1016.1 hPa | 0 mm | - | 434 W/m² | - |
| 1777651204 | 15° C | 83% | 1016.6 hPa | 0 mm | - | 318 W/m² | - |
| 1777648804 | 14.44° C | 87% | 1016.8 hPa | 0 mm | - | 134 W/m² | - |
| 1777636931 | 13.33° C | 88% | 1015.7 hPa | 0 mm | - | 0 W/m² | - |
| 1777636204 | 13.33° C | 88% | 1015.5 hPa | 0 mm | - | 0 W/m² | - |
| 1777634531 | 13.33° C | 88% | 1014.9 hPa | 0 mm | - | 0 W/m² | - |
| 1777630204 | 13.89° C | 86% | 1015.2 hPa | 0 mm | - | 0 W/m² | - |
| 1777627205 | 14.44° C | 86% | 1015.3 hPa | 0 mm | - | 0 W/m² | - |
* Rain latest hour (hover to see other rain measurements)
** Current wind speed in m/s (hover to see current wind gust speed)